Time;durP1;ratioP1;P1;durP2;ratioP2;P2;SDS_P1;SDS_P2;PMS_P1;PMS_P2;Temp;Humidity;BMP_temperature;BMP_pressure;BME280_temperature;BME280_humidity;BME280_pressure;Samples;Min_cycle;Max_cycle;Signal;HPM_P1;HPM_P2
2022/03/07 00:01:02;;;;;;;16.70;11.93;;;;;;;-1.76;61.83;95960.47;4839836;29;20753;-79
2022/03/07 00:04:32;;;;;;;13.87;11.17;;;;;;;-1.69;61.59;95960.19;4819348;29;20229;-77
2022/03/07 00:07:57;;;;;;;13.90;11.20;;;;;;;-1.77;62.67;95960.50;4821867;29;20225;-79
2022/03/07 00:24:30;;;;;;;15.33;10.47;;;;;;;-1.97;62.99;95963.88;5055993;23;20243;-79
2022/03/07 00:27:14;;;;;;;11.90;10.23;;;;;;;-1.94;63.19;95962.91;4975800;28;20208;-78
2022/03/07 00:29:40;;;;;;;14.27;11.07;;;;;;;-1.90;62.48;95962.75;4974428;28;20203;-78
2022/03/07 00:32:06;;;;;;;14.23;11.23;;;;;;;-1.94;63.29;95968.00;4960015;28;20190;-79
2022/03/07 00:38:58;;;;;;;15.03;10.37;;;;;;;-1.84;63.17;95961.69;4901346;29;20237;-79
2022/03/07 00:42:12;;;;;;;;;;;;;;;;;;;;;
2022/03/07 00:45:23;;;;;;;11.80;9.97;;;;;;;-2.00;63.15;95959.75;4885508;29;20205;-79
2022/03/07 00:52:01;;;;;;;14.23;10.27;;;;;;;-2.05;63.15;95964.19;4860196;29;20704;-80
2022/03/07 00:54:52;;;;;;;12.73;9.93;;;;;;;-2.08;63.97;95961.75;4848079;29;20209;-78
2022/03/07 00:57:53;;;;;;;11.80;9.90;;;;;;;-2.01;63.29;95967.44;4860779;29;20252;-79
2022/03/07 01:00:35;;;;;;;13.53;9.60;;;;;;;-2.07;63.39;95960.88;4861160;29;20669;-78
2022/03/07 01:03:04;;;;;;;12.27;9.83;;;;;;;-2.08;63.26;95969.41;4844385;29;20256;-78
2022/03/07 01:05:37;;;;;;;12.40;9.60;;;;;;;-2.12;63.11;95957.69;4861063;29;20665;-80
2022/03/07 01:08:14;;;;;;;12.10;10.13;;;;;;;-2.10;63.52;95972.91;4861051;29;20192;-79
2022/03/07 01:10:57;;;;;;;12.27;9.43;;;;;;;-2.21;64.00;95965.66;4831284;29;20232;-79
2022/03/07 01:13:30;;;;;;;12.53;9.27;;;;;;;-2.15;64.28;95967.97;4860023;29;20222;-79
2022/03/07 01:16:00;;;;;;;13.07;9.90;;;;;;;-2.16;63.63;95968.88;4842745;29;20210;-79
2022/03/07 01:18:30;;;;;;;14.07;10.03;;;;;;;-2.22;63.67;95958.09;4863273;29;20268;-80
2022/03/07 01:21:01;;;;;;;12.90;9.77;;;;;;;-2.16;63.78;95968.88;4879107;29;20668;-79
2022/03/07 01:23:55;;;;;;;11.50;8.83;;;;;;;-2.32;63.85;95966.09;4884314;29;20242;-78
2022/03/07 01:26:23;;;;;;;14.97;10.17;;;;;;;-2.35;64.42;95967.94;4956398;28;20185;-79
2022/03/07 01:28:54;;;;;;;10.80;8.77;;;;;;;-2.23;63.54;95964.09;4940410;29;20196;-80
2022/03/07 01:31:29;;;;;;;12.07;9.20;;;;;;;-2.32;64.27;95960.19;4939734;29;20786;-79
2022/03/07 01:34:02;;;;;;;12.00;9.93;;;;;;;-2.36;63.59;95966.28;4954747;28;20238;-80
2022/03/07 01:36:31;;;;;;;11.60;9.63;;;;;;;-2.41;64.17;95958.00;4955279;28;20264;-78
2022/03/07 01:39:08;;;;;;;10.20;8.20;;;;;;;-2.37;64.38;95955.28;4938160;29;20219;-79
2022/03/07 01:41:50;;;;;;;11.80;8.57;;;;;;;-2.35;63.80;95965.41;4954920;28;20223;-78
2022/03/07 01:44:49;;;;;;;11.27;9.37;;;;;;;-2.36;64.13;95961.19;4955380;28;20288;-79
2022/03/07 01:47:51;;;;;;;12.30;9.03;;;;;;;-2.48;64.21;95948.94;4952209;28;20213;-78
2022/03/07 01:55:07;;;;;;;10.63;8.50;;;;;;;-2.50;63.93;95945.63;4916361;29;20266;-79
2022/03/07 01:58:10;;;;;;;10.67;8.50;;;;;;;-2.53;63.70;95948.31;4841450;29;20193;-79
2022/03/07 02:01:19;;;;;;;11.33;7.97;;;;;;;-2.71;64.24;95945.56;4841062;29;20207;-78
2022/03/07 02:10:49;;;;;;;11.87;8.67;;;;;;;-2.76;63.53;95931.38;4961169;28;20251;-79
2022/03/07 02:13:33;;;;;;;;;;;;;;;;;;;;;
2022/03/07 02:16:20;;;;;;;9.27;7.53;;;;;;;-2.85;63.00;95923.22;4977205;28;20234;-78
2022/03/07 02:18:51;;;;;;;9.33;8.33;;;;;;;-2.90;62.66;95919.19;4991778;28;20227;-77
2022/03/07 02:21:19;;;;;;;12.70;8.07;;;;;;;-2.90;61.79;95920.03;4991497;28;20223;-77
2022/03/07 02:24:07;;;;;;;10.67;8.17;;;;;;;-2.98;63.06;95918.66;4959637;28;20818;-76
2022/03/07 02:27:00;;;;;;;10.10;7.87;;;;;;;-2.98;62.19;95916.94;4992090;28;20197;-77
2022/03/07 02:29:33;;;;;;;10.87;8.27;;;;;;;-3.13;62.37;95913.25;4976233;28;20191;-78
2022/03/07 02:32:04;;;;;;;10.73;8.40;;;;;;;-3.12;62.03;95914.06;4975789;28;20245;-78
2022/03/07 02:34:30;;;;;;;11.77;8.50;;;;;;;-3.13;62.18;95912.41;4992541;28;20748;-77
2022/03/07 02:36:58;;;;;;;11.03;8.27;;;;;;;-3.22;62.66;95921.19;4976448;28;20274;-78
2022/03/07 02:39:24;;;;;;;8.63;7.73;;;;;;;-3.23;62.76;95917.00;4976320;28;20190;-79
2022/03/07 02:41:51;;;;;;;11.00;8.63;;;;;;;-3.26;62.92;95913.75;4977047;28;20220;-79
2022/03/07 02:44:17;;;;;;;12.10;7.80;;;;;;;-3.28;62.71;95916.34;4973421;28;20212;-78
2022/03/07 02:46:42;;;;;;;9.60;8.23;;;;;;;-3.36;62.38;95917.50;4958183;28;20199;-79
2022/03/07 02:49:08;;;;;;;9.67;8.33;;;;;;;-3.40;62.94;95914.25;4957814;28;20188;-78
2022/03/07 02:51:34;;;;;;;10.23;8.57;;;;;;;-3.39;62.55;95910.81;4957179;28;20172;-77
2022/03/07 02:54:00;;;;;;;9.60;8.50;;;;;;;-3.41;62.40;95912.59;4973683;28;20199;-80
2022/03/07 02:56:26;;;;;;;8.93;8.03;;;;;;;-3.46;62.41;95914.44;4957910;28;20188;-76
2022/03/07 02:58:51;;;;;;;10.57;7.97;;;;;;;-3.49;62.88;95915.41;4974815;28;20185;-76
2022/03/07 03:01:17;;;;;;;9.53;8.30;;;;;;;-3.49;62.98;95924.72;4972945;28;20258;-78
2022/03/07 03:03:42;;;;;;;9.77;8.17;;;;;;;-3.48;62.77;95928.91;4973173;28;20208;-77
2022/03/07 03:06:07;;;;;;;12.20;8.77;;;;;;;-3.46;63.08;95914.44;4957200;28;20187;-79
2022/03/07 03:08:33;;;;;;;10.97;8.00;;;;;;;-3.62;63.55;95918.41;4973585;28;20645;-78
2022/03/07 03:10:58;;;;;;;11.10;8.93;;;;;;;-3.54;62.92;95909.63;4957505;28;20188;-79
2022/03/07 03:13:24;;;;;;;10.17;7.40;;;;;;;-3.58;63.61;95909.81;4972926;28;20692;-79
2022/03/07 03:15:52;;;;;;;11.37;8.23;;;;;;;-3.63;63.52;95914.22;4972848;28;20191;-76
2022/03/07 03:18:18;;;;;;;11.20;8.63;;;;;;;-3.64;63.20;95917.63;4973146;28;20195;-76
2022/03/07 03:20:45;;;;;;;12.07;8.67;;;;;;;-3.71;63.62;95922.94;4961884;28;20312;-77
2022/03/07 03:23:10;;;;;;;10.93;7.97;;;;;;;-3.78;63.24;95923.19;4965562;28;20258;-77
2022/03/07 03:25:36;;;;;;;11.83;8.83;;;;;;;-3.79;63.17;95930.00;4956990;28;20199;-76
2022/03/07 03:28:01;;;;;;;11.07;8.90;;;;;;;-3.78;63.49;95933.34;4972598;28;20186;-76
2022/03/07 03:30:28;;;;;;;12.77;9.20;;;;;;;-3.83;62.91;95930.97;4956376;28;20232;-77
2022/03/07 03:32:53;;;;;;;11.03;8.90;;;;;;;-3.87;63.98;95928.59;4971424;28;20769;-77
2022/03/07 03:35:18;;;;;;;12.17;8.87;;;;;;;-3.86;62.99;95928.53;4973295;28;20183;-77
2022/03/07 03:37:44;;;;;;;12.50;9.07;;;;;;;-3.89;63.19;95931.16;4956580;28;20551;-77
2022/03/07 03:40:11;;;;;;;12.80;8.70;;;;;;;-3.84;63.00;95934.38;4971234;28;20188;-77
2022/03/07 03:42:36;;;;;;;10.90;8.57;;;;;;;-3.98;63.26;95939.06;4971655;28;20278;-77
2022/03/07 03:45:05;;;;;;;14.17;9.30;;;;;;;-3.91;62.35;95932.09;4972252;28;20183;-76
2022/03/07 03:47:31;;;;;;;11.13;8.83;;;;;;;-4.04;63.18;95945.19;4972151;28;20231;-77
2022/03/07 03:49:56;;;;;;;11.67;8.23;;;;;;;-4.00;63.10;95943.38;4972011;28;20221;-77
2022/03/07 03:52:23;;;;;;;10.67;8.77;;;;;;;-4.02;63.00;95940.06;4971511;28;20218;-75
2022/03/07 03:54:48;;;;;;;9.90;8.73;;;;;;;-4.05;62.85;95945.25;4973347;28;20274;-78
2022/03/07 03:57:13;;;;;;;12.83;8.87;;;;;;;-4.17;63.58;95940.56;4973180;28;20273;-77
2022/03/07 03:59:39;;;;;;;13.47;9.33;;;;;;;-4.22;63.53;95942.44;4955996;28;20186;-77
2022/03/07 04:02:04;;;;;;;12.90;9.20;;;;;;;-4.33;63.78;95941.06;4972388;28;20633;-76
2022/03/07 04:04:29;;;;;;;11.63;9.43;;;;;;;-4.17;62.71;95943.91;4973144;28;20205;-77
2022/03/07 04:06:55;;;;;;;9.93;8.90;;;;;;;-4.22;63.50;95939.88;4956582;28;20545;-78
2022/03/07 04:09:21;;;;;;;11.70;9.13;;;;;;;-4.19;62.82;95944.84;4974341;28;20182;-77
2022/03/07 04:11:47;;;;;;;12.53;9.50;;;;;;;-4.28;62.95;95945.97;4956068;28;20180;-76
2022/03/07 04:14:12;;;;;;;13.03;9.20;;;;;;;-4.39;63.42;95941.25;4956738;28;20239;-76
2022/03/07 04:16:38;;;;;;;14.10;10.57;;;;;;;-4.37;63.67;95944.56;4956011;28;20642;-77
2022/03/07 04:19:09;;;;;;;14.63;10.37;;;;;;;-4.37;63.05;95939.50;4971762;28;20234;-78
2022/03/07 04:21:35;;;;;;;15.77;10.90;;;;;;;-4.37;63.00;95944.56;4971152;28;20366;-77
2022/03/07 04:24:01;;;;;;;20.27;13.63;;;;;;;-4.46;63.74;95942.31;4973368;28;20633;-77
2022/03/07 04:26:27;;;;;;;17.33;12.17;;;;;;;-4.46;63.62;95949.09;4955604;28;20253;-77
2022/03/07 04:28:52;;;;;;;16.37;11.03;;;;;;;-4.51;63.87;95956.00;4972792;28;20257;-77
2022/03/07 04:31:17;;;;;;;23.00;13.70;;;;;;;-4.43;63.55;95944.75;4956292;28;20214;-77
2022/03/07 04:33:43;;;;;;;20.07;12.30;;;;;;;-4.56;64.14;95946.00;4973107;28;20517;-78
2022/03/07 04:36:09;;;;;;;15.30;10.73;;;;;;;-4.49;63.93;95950.03;4955904;28;20282;-78
2022/03/07 04:38:35;;;;;;;12.87;10.30;;;;;;;-4.46;64.81;95949.91;4956023;28;20190;-78
2022/03/07 04:41:00;;;;;;;16.33;11.60;;;;;;;-4.58;65.02;95951.13;4972330;28;20193;-77
2022/03/07 04:43:25;;;;;;;17.53;11.57;;;;;;;-4.53;66.37;95962.81;4972398;28;20547;-76
2022/03/07 04:45:53;;;;;;;17.13;11.80;;;;;;;-4.66;66.92;95962.38;4956516;28;20260;-77
2022/03/07 04:48:22;;;;;;;14.43;9.57;;;;;;;-4.59;66.74;95959.63;4973650;28;20186;-77
2022/03/07 04:50:48;;;;;;;13.40;10.97;;;;;;;-4.70;67.06;95958.25;4972771;28;20208;-77
2022/03/07 04:53:13;;;;;;;14.67;11.03;;;;;;;-4.68;67.39;95959.03;4972009;28;20617;-77
2022/03/07 04:55:38;;;;;;;14.90;9.97;;;;;;;-4.77;67.62;95965.25;4956237;28;20184;-77
2022/03/07 04:58:04;;;;;;;12.60;10.37;;;;;;;-4.77;68.49;95970.31;4956887;28;20575;-77
2022/03/07 05:00:30;;;;;;;12.13;9.33;;;;;;;-4.84;69.10;95971.34;4971321;28;20555;-76
2022/03/07 05:02:55;;;;;;;12.70;10.23;;;;;;;-4.76;69.42;95966.91;4970278;28;20216;-77
2022/03/07 05:05:20;;;;;;;19.23;12.30;;;;;;;-4.77;70.04;95965.25;4955025;28;20261;-77
2022/03/07 05:07:49;;;;;;;12.37;10.23;;;;;;;-4.73;70.22;95966.78;4972367;28;20211;-77
2022/03/07 05:10:15;;;;;;;12.30;9.33;;;;;;;-4.68;71.01;95971.69;4975220;28;20296;-77
2022/03/07 05:12:40;;;;;;;14.13;9.77;;;;;;;-4.78;70.91;95970.31;4959070;28;20208;-78
2022/03/07 05:15:06;;;;;;;13.03;10.17;;;;;;;-4.79;71.68;95971.19;4975650;28;20187;-79
2022/03/07 05:17:31;;;;;;;14.53;9.77;;;;;;;-4.79;72.07;95976.28;4975499;28;20189;-77
2022/03/07 05:19:56;;;;;;;13.87;9.97;;;;;;;-4.82;71.94;95972.13;4959396;28;20186;-77
2022/03/07 05:22:23;;;;;;;11.00;9.00;;;;;;;-4.86;72.70;95975.59;4975250;28;20222;-78
2022/03/07 05:24:49;;;;;;;13.27;9.90;;;;;;;-4.82;73.03;95982.25;4976089;28;20179;-77
2022/03/07 05:27:14;;;;;;;13.47;10.30;;;;;;;-4.92;72.71;95979.16;4959636;28;20561;-77
2022/03/07 05:29:40;;;;;;;13.60;9.53;;;;;;;-4.87;73.67;95973.94;4976911;28;20238;-77
2022/03/07 05:32:05;;;;;;;12.47;9.97;;;;;;;-4.79;72.81;95986.41;4957272;28;20542;-77
2022/03/07 05:34:30;;;;;;;16.60;10.40;;;;;;;-4.83;74.09;95984.84;4974645;28;20238;-76
2022/03/07 05:36:56;;;;;;;14.00;9.50;;;;;;;-4.89;74.07;95978.25;4973682;28;20266;-76
2022/03/07 05:39:21;;;;;;;15.70;9.73;;;;;;;-4.89;74.14;95984.13;4956344;28;20577;-77
2022/03/07 05:41:46;;;;;;;11.70;8.43;;;;;;;-4.83;73.92;95975.53;4974070;28;20212;-76
2022/03/07 05:44:12;;;;;;;15.03;9.47;;;;;;;-4.95;74.67;95974.16;4973829;28;20268;-76
2022/03/07 05:46:37;;;;;;;14.00;10.23;;;;;;;-5.00;74.26;95976.03;4958617;28;20192;-78
2022/03/07 05:49:03;;;;;;;18.57;11.40;;;;;;;-4.88;74.63;95982.44;4938497;29;20215;-79
2022/03/07 05:51:30;;;;;;;18.60;11.23;;;;;;;-4.96;74.78;95979.28;4938074;29;20170;-79
2022/03/07 05:53:56;;;;;;;14.10;9.13;;;;;;;-4.89;74.88;95974.00;4955256;28;20586;-76
2022/03/07 05:56:21;;;;;;;12.53;8.57;;;;;;;-4.88;74.89;95983.25;4957253;28;20237;-78
2022/03/07 05:58:46;;;;;;;15.13;10.37;;;;;;;-4.93;75.47;95987.66;4962264;28;20221;-78
2022/03/07 06:01:13;;;;;;;14.30;10.27;;;;;;;-5.00;75.34;95988.69;4961192;28;20230;-77
2022/03/07 06:03:38;;;;;;;16.07;10.57;;;;;;;-4.93;75.22;95989.34;4971321;28;20202;-77
2022/03/07 06:06:03;;;;;;;13.80;9.17;;;;;;;-4.93;75.27;95990.19;4956603;28;20178;-77
2022/03/07 06:08:29;;;;;;;13.77;9.53;;;;;;;-4.92;75.38;95994.38;4971809;28;20182;-78
2022/03/07 06:10:54;;;;;;;13.40;9.93;;;;;;;-4.90;75.47;95997.69;4941891;28;20519;-78
2022/03/07 06:13:19;;;;;;;14.87;10.47;;;;;;;-4.89;75.68;95999.34;4958200;28;20205;-78
2022/03/07 06:15:45;;;;;;;14.13;9.90;;;;;;;-4.94;75.58;95998.66;4947955;28;20220;-78
2022/03/07 06:18:11;;;;;;;14.73;9.20;;;;;;;-4.93;74.94;95995.25;4972873;28;20627;-77
2022/03/07 06:20:36;;;;;;;17.40;11.13;;;;;;;-4.90;75.32;95999.38;4954977;29;20175;-78
2022/03/07 06:23:01;;;;;;;13.43;9.50;;;;;;;-4.90;75.44;95996.84;4954731;28;20562;-77
2022/03/07 06:25:29;;;;;;;11.93;8.40;;;;;;;-4.82;74.56;96001.69;4942509;28;20186;-79
2022/03/07 06:27:54;;;;;;;13.20;8.17;;;;;;;-4.74;74.84;95994.72;4955922;28;20177;-77
2022/03/07 06:30:19;;;;;;;11.47;8.67;;;;;;;-4.74;73.93;95990.47;4955177;28;20209;-77
2022/03/07 06:32:45;;;;;;;11.07;8.00;;;;;;;-4.68;74.45;95994.50;4962333;28;20202;-77
2022/03/07 06:35:10;;;;;;;12.30;8.47;;;;;;;-4.68;73.99;95994.50;4957143;28;20187;-78
2022/03/07 06:37:36;;;;;;;16.47;9.30;;;;;;;-4.65;73.93;95997.81;4960383;28;20178;-78
2022/03/07 06:40:01;;;;;;;12.03;8.20;;;;;;;-4.59;73.28;95999.34;4973327;28;20265;-78
2022/03/07 06:42:26;;;;;;;12.23;7.60;;;;;;;-4.58;73.05;96001.00;4957050;28;20244;-77
2022/03/07 06:44:51;;;;;;;10.87;8.60;;;;;;;-4.52;73.06;95990.66;4968134;28;20222;-79
2022/03/07 06:47:17;;;;;;;15.23;7.90;;;;;;;-4.38;72.61;95997.84;4959925;28;20222;-78
2022/03/07 06:49:43;;;;;;;8.80;7.17;;;;;;;-4.42;72.44;96002.16;4944625;28;20194;-80
2022/03/07 06:52:08;;;;;;;10.10;7.70;;;;;;;-4.30;72.35;95999.28;4949084;28;20218;-78
2022/03/07 06:54:34;;;;;;;11.03;8.30;;;;;;;-4.30;72.47;96001.81;4945189;29;20184;-77
2022/03/07 06:56:59;;;;;;;10.20;7.50;;;;;;;-4.33;71.47;96011.19;4953165;28;20794;-77
2022/03/07 06:59:24;;;;;;;10.53;8.30;;;;;;;-4.27;71.71;96005.94;4971817;28;20194;-78
2022/03/07 07:01:51;;;;;;;11.63;8.57;;;;;;;-4.22;70.89;96005.81;4963734;28;20234;-77
2022/03/07 07:04:17;;;;;;;10.40;7.93;;;;;;;-4.27;71.33;96021.16;4948094;28;20268;-77
2022/03/07 07:06:42;;;;;;;11.37;7.83;;;;;;;-4.25;71.11;96013.50;4957519;28;20194;-77
2022/03/07 07:09:07;;;;;;;11.30;8.83;;;;;;;-4.21;71.46;96005.78;4967081;28;20194;-78
2022/03/07 07:11:33;;;;;;;10.53;8.50;;;;;;;-4.25;71.41;95995.75;4968973;28;20199;-77
2022/03/07 07:13:58;;;;;;;10.47;8.47;;;;;;;-4.11;71.23;96002.06;4962133;28;20727;-77
2022/03/07 07:16:23;;;;;;;9.90;7.70;;;;;;;-4.01;70.35;96013.56;4966352;28;20183;-77
2022/03/07 07:18:49;;;;;;;10.53;8.57;;;;;;;-3.94;70.23;96004.06;4953904;28;20189;-79
2022/03/07 07:21:14;;;;;;;8.87;7.10;;;;;;;-4.14;70.45;96016.56;4946330;28;20219;-77
2022/03/07 07:23:39;;;;;;;10.53;7.13;;;;;;;-3.94;70.28;96013.38;4962247;28;20218;-77
2022/03/07 07:26:05;;;;;;;8.53;6.63;;;;;;;-3.69;69.54;96021.03;4949172;28;20544;-77
2022/03/07 07:28:31;;;;;;;10.93;7.17;;;;;;;-3.72;68.73;96024.50;4940431;28;20719;-78
2022/03/07 07:30:56;;;;;;;12.33;8.47;;;;;;;-3.60;68.15;96026.66;4963014;28;20192;-77
2022/03/07 07:33:21;;;;;;;10.27;8.23;;;;;;;-3.68;68.34;96028.59;4962459;28;20209;-77
2022/03/07 07:35:47;;;;;;;12.77;8.77;;;;;;;-3.63;68.01;96030.97;4970592;28;20274;-76
2022/03/07 07:38:13;;;;;;;12.23;7.67;;;;;;;-3.53;67.90;96035.72;4945243;28;20204;-80
2022/03/07 07:40:38;;;;;;;8.27;6.60;;;;;;;-3.52;67.43;96039.91;4960656;28;20194;-79
2022/03/07 07:43:04;;;;;;;13.47;8.63;;;;;;;-3.59;68.06;96038.47;4960390;28;20200;-78
2022/03/07 07:45:29;;;;;;;12.90;7.40;;;;;;;-3.44;67.87;96042.22;4960287;28;20262;-77
2022/03/07 07:47:54;;;;;;;12.67;8.77;;;;;;;-3.56;68.04;96045.97;4952348;28;20189;-78
2022/03/07 07:50:20;;;;;;;13.87;9.40;;;;;;;-3.51;67.70;96043.28;4953473;28;20189;-78
2022/03/07 07:52:46;;;;;;;9.77;7.17;;;;;;;-3.28;66.82;96039.97;4949564;28;20206;-77
2022/03/07 07:55:11;;;;;;;8.97;6.67;;;;;;;-3.06;66.55;96037.53;4967311;28;20287;-76
2022/03/07 07:57:39;;;;;;;9.33;7.17;;;;;;;-3.06;65.35;96045.16;4940810;28;20185;-77
2022/03/07 08:00:06;;;;;;;11.37;7.87;;;;;;;-3.25;65.05;96052.56;4969585;28;20765;-79
2022/03/07 08:02:31;;;;;;;12.73;7.27;;;;;;;-3.29;64.86;96059.44;4953742;28;20221;-77
2022/03/07 08:04:56;;;;;;;11.93;9.63;;;;;;;-3.27;65.62;96062.78;4968061;28;20194;-76
2022/03/07 08:07:22;;;;;;;9.13;7.97;;;;;;;-3.26;65.77;96061.91;4955069;28;20664;-77
2022/03/07 08:09:47;;;;;;;13.37;8.33;;;;;;;-3.21;65.25;96057.47;4944700;28;20188;-77
2022/03/07 08:12:17;;;;;;;11.87;8.03;;;;;;;-3.32;65.09;96072.25;4956220;28;20186;-78
2022/03/07 08:14:42;;;;;;;11.63;8.20;;;;;;;-3.24;64.78;96067.75;4939836;29;20176;-77
2022/03/07 08:17:08;;;;;;;12.13;8.57;;;;;;;-3.30;65.05;96069.66;4954942;28;20696;-77
2022/03/07 08:19:33;;;;;;;14.87;8.50;;;;;;;-3.17;64.75;96051.44;4966627;28;20256;-78
2022/03/07 08:21:58;;;;;;;10.87;8.77;;;;;;;-2.91;64.65;96059.88;4954070;28;20219;-77
2022/03/07 08:24:24;;;;;;;13.80;9.53;;;;;;;-2.78;63.37;96066.16;4946926;28;20225;-77
2022/03/07 08:26:50;;;;;;;11.57;8.90;;;;;;;-2.76;63.47;96074.56;4960507;28;20191;-77
2022/03/07 08:29:15;;;;;;;11.63;7.93;;;;;;;-2.61;63.19;96074.00;4965818;28;20215;-78
2022/03/07 08:31:40;;;;;;;10.77;8.60;;;;;;;-2.46;62.29;96066.72;4960398;28;20189;-78
2022/03/07 08:34:05;;;;;;;11.27;7.90;;;;;;;-2.38;61.69;96080.81;4963749;28;20231;-77
2022/03/07 08:36:31;;;;;;;12.40;8.03;;;;;;;-2.59;61.36;96082.41;4967508;28;20565;-77
2022/03/07 08:38:57;;;;;;;10.47;8.30;;;;;;;-2.35;61.01;96073.06;4951718;28;20193;-77
2022/03/07 08:41:22;;;;;;;11.73;8.53;;;;;;;-2.29;60.67;96079.66;4969322;28;20262;-75
2022/03/07 08:43:49;;;;;;;12.03;8.70;;;;;;;-2.40;60.67;96077.47;4973440;28;20282;-77
2022/03/07 08:46:15;;;;;;;10.87;8.13;;;;;;;-2.51;61.09;96068.59;4972551;28;20188;-77
2022/03/07 08:48:46;;;;;;;12.97;8.57;;;;;;;-2.31;61.37;96076.31;4965426;28;20234;-77
2022/03/07 08:51:11;;;;;;;12.43;8.60;;;;;;;-2.35;60.25;96080.69;4958333;28;20181;-76
2022/03/07 08:53:36;;;;;;;13.80;8.63;;;;;;;-2.22;60.96;96078.50;4960244;28;20553;-77
2022/03/07 08:56:02;;;;;;;14.33;9.60;;;;;;;-2.08;59.99;96083.09;4972641;28;20181;-76
2022/03/07 08:58:27;;;;;;;11.67;8.27;;;;;;;-1.94;59.17;96080.00;4961260;28;20263;-78
2022/03/07 09:00:53;;;;;;;12.33;8.60;;;;;;;-1.93;59.53;96076.59;4941258;29;20584;-79
2022/03/07 09:03:18;;;;;;;12.77;8.93;;;;;;;-2.05;59.31;96093.97;4953495;28;20623;-76
2022/03/07 09:05:44;;;;;;;12.37;9.30;;;;;;;-2.00;59.51;96092.09;4967543;28;20189;-77
2022/03/07 09:08:09;;;;;;;13.83;9.67;;;;;;;-1.87;58.70;96086.53;4942179;28;20260;-77
2022/03/07 09:10:35;;;;;;;12.80;8.80;;;;;;;-1.75;58.68;96086.06;4958670;28;20196;-76
2022/03/07 09:13:00;;;;;;;13.93;8.43;;;;;;;-1.69;57.85;96093.44;4971036;28;20592;-77
2022/03/07 09:15:25;;;;;;;11.50;8.77;;;;;;;-1.77;57.60;96098.84;4962703;28;20675;-78
2022/03/07 09:17:51;;;;;;;14.13;9.30;;;;;;;-1.46;56.91;96090.00;4965459;28;20196;-77
2022/03/07 09:20:17;;;;;;;17.50;9.33;;;;;;;-1.53;55.77;96091.94;4946842;28;20668;-77
2022/03/07 09:22:43;;;;;;;15.83;10.03;;;;;;;-0.99;55.44;96090.56;4958733;28;20208;-77
2022/03/07 09:25:09;;;;;;;13.37;9.77;;;;;;;-1.05;55.31;96098.50;4940108;29;20762;-77
2022/03/07 09:27:35;;;;;;;11.47;9.97;;;;;;;-0.63;54.58;96100.09;4966042;28;20184;-77
2022/03/07 09:30:00;;;;;;;12.50;9.67;;;;;;;-0.48;53.67;96093.50;4967306;28;20213;-78
2022/03/07 09:32:25;;;;;;;12.10;9.63;;;;;;;-0.51;52.99;96098.75;4959917;28;20271;-76
2022/03/07 09:34:51;;;;;;;14.37;10.20;;;;;;;-0.31;52.29;96099.53;4959266;28;20203;-78
2022/03/07 09:37:16;;;;;;;15.27;10.50;;;;;;;-0.29;52.27;96105.38;4951358;28;20185;-78
2022/03/07 09:39:41;;;;;;;15.73;10.30;;;;;;;-0.18;51.93;96104.88;4952503;28;20207;-78
2022/03/07 09:42:07;;;;;;;13.33;9.70;;;;;;;-0.19;50.77;96098.13;4957542;29;20233;-77
2022/03/07 09:44:33;;;;;;;12.83;9.40;;;;;;;-0.05;50.62;96097.53;4954204;28;20233;-78
2022/03/07 09:47:00;;;;;;;14.83;10.13;;;;;;;0.17;49.53;96097.34;4978702;28;20728;-78
2022/03/07 09:49:25;;;;;;;11.77;9.30;;;;;;;0.09;49.73;96100.28;4971852;28;20182;-78
2022/03/07 09:51:52;;;;;;;13.40;10.33;;;;;;;0.56;50.05;96094.66;4969977;28;20191;-78
2022/03/07 09:54:17;;;;;;;11.87;10.33;;;;;;;0.81;48.50;96097.69;4986054;28;20208;-78
2022/03/07 09:56:42;;;;;;;13.00;10.27;;;;;;;0.66;48.44;96100.97;4986555;28;20213;-78
2022/03/07 09:59:08;;;;;;;13.87;11.07;;;;;;;0.87;47.33;96101.66;4965029;28;20183;-79
2022/03/07 10:01:33;;;;;;;14.10;10.07;;;;;;;0.82;46.72;96107.00;4963116;28;20274;-79
2022/03/07 10:04:09;;;;;;;12.87;10.20;;;;;;;0.64;46.13;96104.53;4961505;28;20216;-79
2022/03/07 10:06:35;;;;;;;11.47;9.97;;;;;;;0.92;46.32;96120.16;4963308;28;20188;-79
2022/03/07 10:09:01;;;;;;;15.03;10.13;;;;;;;0.71;46.53;96116.09;4975062;28;20181;-78
2022/03/07 10:11:28;;;;;;;14.73;9.80;;;;;;;0.97;44.90;96118.22;4945390;28;20182;-79
2022/03/07 10:14:02;;;;;;;12.33;9.47;;;;;;;0.66;46.33;96111.19;4948217;28;20204;-79
2022/03/07 10:16:44;;;;;;;11.77;9.40;;;;;;;0.86;45.85;96112.78;4956282;29;20204;-79
2022/03/07 10:19:15;;;;;;;14.17;9.90;;;;;;;1.06;46.84;96104.13;4947883;28;20183;-79
2022/03/07 10:21:46;;;;;;;13.67;10.77;;;;;;;1.30;46.57;96107.19;4970395;28;20726;-80
2022/03/07 10:24:11;;;;;;;16.47;11.33;;;;;;;1.16;46.00;96110.47;4949314;29;20202;-79
2022/03/07 10:26:37;;;;;;;13.70;10.40;;;;;;;0.98;45.75;96112.19;4943305;29;20184;-79
2022/03/07 10:29:04;;;;;;;18.70;11.07;;;;;;;1.31;47.11;96112.22;4953941;28;20183;-79
2022/03/07 10:31:29;;;;;;;13.43;9.83;;;;;;;1.36;46.74;96123.06;4962218;28;20552;-79
2022/03/07 10:34:06;;;;;;;13.33;11.17;;;;;;;1.11;45.78;96120.09;4958860;28;20214;-79
2022/03/07 10:36:40;;;;;;;13.17;10.80;;;;;;;0.52;46.81;96134.03;4956135;29;20277;-80
2022/03/07 10:39:07;;;;;;;12.67;9.90;;;;;;;0.36;47.75;96123.72;4953330;28;20188;-80
2022/03/07 10:41:41;;;;;;;15.70;10.50;;;;;;;0.21;48.44;96122.69;4956319;28;20196;-80
2022/03/07 10:44:09;;;;;;;14.10;10.07;;;;;;;0.08;48.55;96111.38;4959581;28;20231;-79
2022/03/07 10:46:34;;;;;;;14.53;10.93;;;;;;;-0.01;47.98;96114.34;4960052;28;20192;-80
2022/03/07 10:49:00;;;;;;;15.50;10.67;;;;;;;-0.12;48.42;96108.91;4939949;28;20623;-78
2022/03/07 10:51:25;;;;;;;13.40;10.93;;;;;;;0.00;47.84;96121.13;4955205;28;20182;-79
2022/03/07 10:53:52;;;;;;;13.50;9.83;;;;;;;0.01;48.88;96117.69;4955101;28;20197;-80
2022/03/07 10:56:18;;;;;;;14.83;10.43;;;;;;;0.17;48.88;96110.94;4944164;28;20185;-79
2022/03/07 10:58:52;;;;;;;12.93;10.07;;;;;;;0.02;48.96;96103.19;4952822;28;20183;-78
2022/03/07 11:01:28;;;;;;;13.83;10.10;;;;;;;0.17;48.74;96103.28;4973014;28;20253;-79
2022/03/07 11:03:54;;;;;;;19.53;11.43;;;;;;;0.23;48.48;96102.19;4973750;28;20726;-79
2022/03/07 11:06:20;;;;;;;15.37;9.83;;;;;;;0.52;47.97;96100.81;4940743;28;20597;-79
2022/03/07 11:08:46;;;;;;;13.77;10.87;;;;;;;0.27;47.94;96094.31;4961426;28;20246;-79
2022/03/07 11:11:13;;;;;;;14.20;9.80;;;;;;;0.55;47.33;96100.69;4956062;28;20243;-78
2022/03/07 11:13:38;;;;;;;18.27;10.87;;;;;;;0.67;47.31;96104.38;4945824;28;20202;-79
2022/03/07 11:16:04;;;;;;;12.77;10.40;;;;;;;0.62;47.51;96096.94;4942201;28;20182;-80
2022/03/07 11:18:31;;;;;;;15.80;10.33;;;;;;;0.08;47.59;96108.81;4943559;28;20188;-79
2022/03/07 11:20:57;;;;;;;16.17;10.23;;;;;;;0.23;48.27;96092.78;4972283;28;20185;-79
2022/03/07 11:23:23;;;;;;;13.07;10.63;;;;;;;0.51;48.28;96097.41;4946276;28;20578;-79
2022/03/07 11:25:50;;;;;;;14.77;10.80;;;;;;;0.84;46.48;96094.97;4958418;28;20192;-81
2022/03/07 11:28:15;;;;;;;14.60;10.83;;;;;;;0.33;46.53;96097.47;4964499;28;20232;-81
2022/03/07 11:30:42;;;;;;;16.23;11.50;;;;;;;0.18;47.03;96097.31;4944209;29;20657;-81
2022/03/07 11:33:10;;;;;;;16.20;11.00;;;;;;;0.07;47.84;96085.91;4939653;28;20206;-79
2022/03/07 11:35:37;;;;;;;15.00;10.50;;;;;;;0.16;47.95;96091.41;4973965;28;20556;-81
2022/03/07 11:38:17;;;;;;;14.27;10.73;;;;;;;0.38;47.80;96077.66;4949066;28;20197;-79
2022/03/07 11:41:14;;;;;;;14.73;11.03;;;;;;;0.69;47.21;96080.38;4961150;28;20181;-81
2022/03/07 11:44:03;;;;;;;34.23;19.13;;;;;;;1.03;46.53;96073.59;4960438;28;20282;-79
2022/03/07 11:46:32;;;;;;;15.77;11.73;;;;;;;1.47;46.30;96075.63;4948134;28;20190;-81
2022/03/07 11:48:59;;;;;;;16.00;10.83;;;;;;;1.37;45.10;96076.09;4965947;28;20199;-81
2022/03/07 11:51:26;;;;;;;13.03;10.00;;;;;;;1.33;44.81;96078.91;4954263;28;20182;-81
2022/03/07 11:53:53;;;;;;;16.57;12.03;;;;;;;1.35;45.11;96079.66;4968585;28;20195;-81
2022/03/07 11:56:21;;;;;;;15.77;11.30;;;;;;;1.64;45.52;96081.53;4947624;28;20685;-81
2022/03/07 11:58:53;;;;;;;16.67;11.03;;;;;;;1.48;44.64;96079.84;4952149;28;20561;-82
2022/03/07 12:01:20;;;;;;;16.03;11.83;;;;;;;0.98;45.40;96081.50;4960942;28;20187;-79
2022/03/07 12:03:47;;;;;;;23.83;14.67;;;;;;;1.11;45.86;96081.72;4970786;28;20710;-79
2022/03/07 12:06:14;;;;;;;40.43;19.10;;;;;;;0.68;46.16;96080.44;4971577;28;20722;-80
2022/03/07 12:08:51;;;;;;;13.93;11.50;;;;;;;0.95;46.13;96070.59;4957719;28;20288;-78